< < Back
Terminal Aerodrome Forecast


Current Version              Previous Versions:   1  2  3  4  5  6  7  8  9  

Terminal Aerodrome Forecast

735
FTUS44 KOHX 181700
TAFCSV
TAF
KCSV 181720Z 1818/1918 07007KT P6SM FEW035 BKN150
     FM190300 10003KT 6SM -SHRA OVC035
     FM191100 14008KT 4SM -SHRA OVC015=



Latest METAR

619
SAUS70 KWBC 182300 RRA
MTRCSV
METAR KCSV 182253Z AUTO 14003KT 10SM OVC070 23/12 A2994 RMK AO2 SLP123
T02280117


USA.gov is the U.S. government's official web portal to all federal, state and local government web resources and services.